createdAt,value
2023-05-10T00:02:04.170Z,100936.69
2023-05-10T00:04:30.894Z,100923.75
2023-05-10T00:06:57.558Z,100926.31
2023-05-10T00:09:24.106Z,100918.56
2023-05-10T00:11:50.766Z,100915.13
2023-05-10T00:14:17.921Z,100916.00
2023-05-10T00:16:44.537Z,100916.84
2023-05-10T00:19:11.452Z,100916.84
2023-05-10T00:21:37.986Z,100917.69
2023-05-10T00:24:04.911Z,100918.56
2023-05-10T00:26:31.469Z,100912.53
2023-05-10T00:28:59.551Z,100915.09
2023-05-10T00:31:26.456Z,100905.63
2023-05-10T00:33:52.986Z,100906.50
2023-05-10T00:36:19.522Z,100910.81
2023-05-10T00:38:47.340Z,100914.25
2023-05-10T00:41:14.000Z,100911.66
2023-05-10T00:43:40.509Z,100909.94
2023-05-10T00:46:07.498Z,100904.75
2023-05-10T00:48:34.462Z,100915.97
2023-05-10T00:51:02.628Z,100914.25
2023-05-10T00:53:32.029Z,100911.66
2023-05-10T00:55:58.724Z,100912.53
2023-05-10T00:58:28.997Z,100912.53
2023-05-10T01:00:57.213Z,100921.16
2023-05-10T01:03:23.888Z,100919.44
2023-05-10T01:05:50.917Z,100917.72
2023-05-10T01:08:17.533Z,100926.34
2023-05-10T01:10:44.771Z,100915.97
2023-05-10T01:13:12.332Z,100923.75
2023-05-10T01:15:39.991Z,100925.47
2023-05-10T01:18:07.348Z,100925.47
2023-05-10T01:20:43.074Z,100926.34
2023-05-10T01:23:51.106Z,100933.25
2023-05-10T01:26:26.268Z,100933.22
2023-05-10T01:29:30.539Z,100922.91
2023-05-10T01:32:02.607Z,100921.16
2023-05-10T01:34:36.934Z,100917.72
2023-05-10T01:37:14.609Z,100917.72
2023-05-10T01:40:01.312Z,100919.44
2023-05-10T01:42:36.938Z,100915.13
2023-05-10T01:45:13.828Z,100914.28
2023-05-10T01:47:44.425Z,100919.44
2023-05-10T01:50:29.741Z,100927.22
2023-05-10T01:52:57.851Z,100928.06
2023-05-10T01:55:28.564Z,100928.91
2023-05-10T01:58:11.141Z,100934.94
2023-05-10T02:00:41.212Z,100931.50
2023-05-10T02:03:09.816Z,100925.47
2023-05-10T02:05:37.721Z,100934.94
2023-05-10T02:08:07.926Z,100928.91
2023-05-10T02:10:36.488Z,100929.78
2023-05-10T02:13:04.588Z,100918.59
2023-05-10T02:15:32.261Z,100929.78
2023-05-10T02:18:01.071Z,100940.13
2023-05-10T02:20:28.274Z,100931.50
2023-05-10T02:22:57.130Z,100940.13
2023-05-10T02:25:25.190Z,100951.31
2023-05-10T02:27:55.033Z,100949.59
2023-05-10T02:30:23.939Z,100953.06
2023-05-10T02:32:51.621Z,100942.72
2023-05-10T02:35:18.581Z,100948.72
2023-05-10T02:37:46.564Z,100940.97
2023-05-10T02:40:14.279Z,100946.13
2023-05-10T02:42:44.716Z,100945.28
2023-05-10T02:45:19.376Z,100935.78
2023-05-10T02:47:45.983Z,100953.91
2023-05-10T02:50:12.694Z,100950.44
2023-05-10T02:52:47.398Z,100947.00
2023-05-10T02:55:17.292Z,100950.44
2023-05-10T02:57:53.546Z,100955.59
2023-05-10T03:00:20.358Z,100959.91
2023-05-10T03:02:46.934Z,100958.19
2023-05-10T03:05:13.532Z,100966.81
2023-05-10T03:07:40.256Z,100956.44
2023-05-10T03:10:07.473Z,100955.59
2023-05-10T03:12:46.831Z,100971.97
2023-05-10T03:15:47.070Z,100969.38
2023-05-10T03:18:23.373Z,100960.75
2023-05-10T03:20:55.592Z,100971.09
2023-05-10T03:23:27.859Z,100965.94
2023-05-10T03:25:54.909Z,100962.47
2023-05-10T03:28:22.098Z,100959.88
2023-05-10T03:30:49.500Z,100966.78
2023-05-10T03:33:16.285Z,100966.75
2023-05-10T03:35:43.116Z,100964.19
2023-05-10T03:38:09.683Z,100967.63
2023-05-10T03:40:36.278Z,100977.97
2023-05-10T03:43:02.896Z,100967.63
2023-05-10T03:45:29.703Z,100975.38
2023-05-10T03:47:56.366Z,100969.34
2023-05-10T03:50:23.132Z,100972.78
2023-05-10T03:52:50.042Z,100980.56
2023-05-10T03:55:17.283Z,100976.22
2023-05-10T03:57:43.893Z,100979.69
2023-05-10T04:00:11.089Z,100981.38
2023-05-10T04:02:38.605Z,100984.84
2023-05-10T04:05:05.696Z,100981.38
2023-05-10T04:07:32.311Z,100993.47
2023-05-10T04:09:58.924Z,100989.16
2023-05-10T04:12:25.667Z,100994.34
2023-05-10T04:14:52.187Z,100996.06
2023-05-10T04:17:19.012Z,100998.63
2023-05-10T04:19:45.684Z,100989.16
2023-05-10T04:22:12.242Z,100992.59
2023-05-10T04:24:38.755Z,100984.84
2023-05-10T04:27:05.399Z,100988.28
2023-05-10T04:29:32.092Z,100990.00
2023-05-10T04:31:58.821Z,101000.34
2023-05-10T04:34:26.538Z,100995.16
2023-05-10T04:36:53.111Z,100996.88
2023-05-10T04:39:20.068Z,100991.69
2023-05-10T04:41:46.742Z,101008.94
2023-05-10T04:44:13.314Z,101001.16
2023-05-10T04:46:40.161Z,100996.00
2023-05-10T04:49:06.798Z,100989.09
2023-05-10T04:51:33.542Z,101010.63
2023-05-10T04:54:06.153Z,101011.50
2023-05-10T04:56:34.092Z,101015.78
2023-05-10T04:59:00.731Z,101008.00
2023-05-10T05:01:27.300Z,101008.88
2023-05-10T05:03:54.294Z,101016.59
2023-05-10T05:06:22.160Z,101026.94
2023-05-10T05:08:50.515Z,101032.13
2023-05-10T05:11:18.196Z,101024.41
2023-05-10T05:13:44.846Z,101033.03
2023-05-10T05:16:12.478Z,101021.84
2023-05-10T05:18:39.395Z,101034.75
2023-05-10T05:21:19.306Z,101044.25
2023-05-10T05:23:46.374Z,101039.97
2023-05-10T05:26:13.089Z,101030.50
2023-05-10T05:28:39.700Z,101027.94
2023-05-10T05:31:07.002Z,101046.06
2023-05-10T05:33:33.558Z,101036.59
2023-05-10T05:36:04.924Z,101046.94
2023-05-10T05:38:31.649Z,101047.78
2023-05-10T05:40:59.073Z,101043.50
2023-05-10T05:43:25.789Z,101046.97
2023-05-10T05:45:55.247Z,101052.97
2023-05-10T05:48:22.058Z,101058.16
2023-05-10T05:50:48.595Z,101050.38
2023-05-10T05:53:15.450Z,101052.97
2023-05-10T05:55:42.030Z,101046.06
2023-05-10T05:58:08.527Z,101056.41
2023-05-10T06:00:35.296Z,101061.59
2023-05-10T06:03:01.969Z,101062.44
2023-05-10T06:05:28.582Z,101065.88
2023-05-10T06:07:55.098Z,101059.78
2023-05-10T06:10:21.632Z,101077.06
2023-05-10T06:12:48.248Z,101072.75
2023-05-10T06:15:15.023Z,101080.50
2023-05-10T06:17:41.772Z,101075.34
2023-05-10T06:20:09.144Z,101081.38
2023-05-10T06:22:35.753Z,101078.75
2023-05-10T06:25:03.052Z,101081.38
2023-05-10T06:27:29.658Z,101074.50
2023-05-10T06:30:02.148Z,101084.00
2023-05-10T06:32:32.378Z,101075.38
2023-05-10T06:34:59.347Z,101082.28
2023-05-10T06:37:25.883Z,101089.13
2023-05-10T06:39:52.584Z,101086.59
2023-05-10T06:42:19.194Z,101072.81
2023-05-10T06:44:45.793Z,101081.47
2023-05-10T06:47:12.329Z,101078.03
2023-05-10T06:49:38.971Z,101069.41
2023-05-10T06:52:05.536Z,101080.59
2023-05-10T06:54:32.133Z,101078.03
2023-05-10T06:56:58.856Z,101081.50
2023-05-10T06:59:25.501Z,101077.19
2023-05-10T07:01:52.189Z,101091.06
2023-05-10T07:04:18.931Z,101082.44
2023-05-10T07:06:47.263Z,101082.44
2023-05-10T07:09:14.479Z,101089.34
2023-05-10T07:11:41.236Z,101091.09
2023-05-10T07:14:07.816Z,101091.94
2023-05-10T07:16:34.439Z,101093.72
2023-05-10T07:19:01.092Z,101092.81
2023-05-10T07:21:29.705Z,101090.22
2023-05-10T07:23:56.452Z,101089.34
2023-05-10T07:26:23.022Z,101086.75
2023-05-10T07:28:49.503Z,101090.22
2023-05-10T07:31:16.092Z,101095.44
2023-05-10T07:33:42.711Z,101093.69
2023-05-10T07:36:09.361Z,101076.41
2023-05-10T07:38:35.939Z,101089.38
2023-05-10T07:41:02.486Z,101087.63
2023-05-10T07:43:29.069Z,101085.91
2023-05-10T07:45:56.404Z,101097.97
2023-05-10T07:48:23.055Z,101104.03
2023-05-10T07:50:49.616Z,101109.22
2023-05-10T07:53:16.160Z,101109.22
2023-05-10T07:55:42.731Z,101117.03
2023-05-10T07:58:09.264Z,101104.06
2023-05-10T08:00:35.936Z,101117.06
2023-05-10T08:03:02.626Z,101114.47
2023-05-10T08:05:29.207Z,101108.41
2023-05-10T08:07:55.860Z,101117.91
2023-05-10T08:10:22.376Z,101117.06
2023-05-10T08:12:48.934Z,101121.38
2023-05-10T08:15:15.745Z,101121.38
2023-05-10T08:17:42.625Z,101127.38
2023-05-10T08:20:09.656Z,101136.03
2023-05-10T08:22:36.205Z,101131.69
2023-05-10T08:25:02.774Z,101143.78
2023-05-10T08:27:29.284Z,101139.47
2023-05-10T08:29:55.855Z,101146.38
2023-05-10T08:32:22.456Z,101143.81
2023-05-10T08:34:49.067Z,101147.28
2023-05-10T08:37:15.718Z,101139.50
2023-05-10T08:39:42.351Z,101144.66
2023-05-10T08:42:10.798Z,101137.75
2023-05-10T08:44:37.996Z,101138.59
2023-05-10T08:47:08.531Z,101136.84
2023-05-10T08:49:35.823Z,101132.41
2023-05-10T08:52:08.363Z,101133.22
2023-05-10T08:54:35.415Z,101137.53
2023-05-10T08:57:02.505Z,101142.78
2023-05-10T08:59:29.641Z,101140.22
2023-05-10T09:01:59.003Z,101145.44
2023-05-10T09:04:26.264Z,101144.59
2023-05-10T09:06:53.093Z,101148.91
2023-05-10T09:09:21.466Z,101149.72
2023-05-10T09:11:48.637Z,101140.97
2023-05-10T09:14:16.515Z,101153.81
2023-05-10T09:16:43.600Z,101149.38
2023-05-10T09:19:10.442Z,101140.63
2023-05-10T09:21:39.273Z,101144.88
2023-05-10T09:24:09.482Z,101150.91
2023-05-10T09:26:46.450Z,101154.34
2023-05-10T09:29:14.163Z,101146.66
2023-05-10T09:31:48.774Z,101156.13
2023-05-10T09:34:29.926Z,101157.03
2023-05-10T09:36:59.012Z,101156.22
2023-05-10T09:39:36.959Z,101162.22
2023-05-10T09:42:06.367Z,101168.25
2023-05-10T09:44:34.105Z,101170.00
2023-05-10T09:47:04.363Z,101159.72
2023-05-10T09:49:31.420Z,101170.13
2023-05-10T09:52:06.566Z,101177.91
2023-05-10T09:54:34.631Z,101173.63
2023-05-10T09:57:01.736Z,101181.47
2023-05-10T09:59:29.779Z,101178.97
2023-05-10T10:02:01.167Z,101193.75
2023-05-10T10:04:28.475Z,101199.81
2023-05-10T10:07:05.630Z,101190.31
2023-05-10T10:09:33.266Z,101192.88
2023-05-10T10:12:03.883Z,101200.59
2023-05-10T10:14:30.794Z,101199.59
2023-05-10T10:17:07.655Z,101190.00
2023-05-10T10:19:36.959Z,101189.13
2023-05-10T10:22:03.937Z,101192.47
2023-05-10T10:24:30.883Z,101194.94
2023-05-10T10:27:06.642Z,101186.94
2023-05-10T10:29:42.273Z,101193.00
2023-05-10T10:32:50.545Z,101183.53
2023-05-10T10:35:17.654Z,101192.22
2023-05-10T10:37:49.016Z,101188.72
2023-05-10T10:40:27.941Z,101200.78
2023-05-10T10:42:55.841Z,101181.59
2023-05-10T10:45:23.372Z,101188.50
2023-05-10T10:47:51.016Z,101175.34
2023-05-10T10:50:17.802Z,101189.94
2023-05-10T10:52:45.245Z,101189.91
2023-05-10T10:55:14.860Z,101194.34
2023-05-10T10:57:41.456Z,101189.03
2023-05-10T11:00:24.727Z,101195.16
2023-05-10T11:03:22.087Z,101203.94
2023-05-10T11:05:49.812Z,101195.34
2023-05-10T11:08:30.873Z,101195.34
2023-05-10T11:11:00.522Z,101201.34
2023-05-10T11:13:40.434Z,101199.81
2023-05-10T11:16:26.397Z,101207.59
2023-05-10T11:18:55.242Z,101202.53
2023-05-10T11:21:22.116Z,101205.22
2023-05-10T11:23:49.747Z,101213.94
2023-05-10T11:26:16.376Z,101209.84
2023-05-10T11:28:46.166Z,101213.31
2023-05-10T11:31:17.296Z,101225.47
2023-05-10T11:33:49.059Z,101224.56
2023-05-10T11:36:17.760Z,101221.09
2023-05-10T11:38:45.005Z,101218.44
2023-05-10T11:41:13.262Z,101227.00
2023-05-10T11:43:40.954Z,101215.63
2023-05-10T11:46:09.205Z,101216.25
2023-05-10T11:48:35.828Z,101213.53
2023-05-10T11:51:03.191Z,101211.72
2023-05-10T11:53:33.450Z,101219.47
2023-05-10T11:56:11.180Z,101225.63
2023-05-10T11:58:39.128Z,101220.53
2023-05-10T12:01:07.673Z,101224.94
2023-05-10T12:03:35.308Z,101233.75
2023-05-10T12:06:03.090Z,101230.28
2023-05-10T12:08:31.054Z,101235.53
2023-05-10T12:11:08.665Z,101227.00
2023-05-10T12:13:42.731Z,101247.78
2023-05-10T12:16:22.483Z,101240.88
2023-05-10T12:18:53.428Z,101240.84
2023-05-10T12:21:21.863Z,101239.06
2023-05-10T12:23:51.258Z,101240.78
2023-05-10T12:26:18.227Z,101245.88
2023-05-10T12:28:45.381Z,101243.25
2023-05-10T12:31:12.025Z,101234.63
2023-05-10T12:33:43.536Z,101249.38
2023-05-10T12:36:17.301Z,101240.59
2023-05-10T12:38:48.606Z,101246.53
2023-05-10T12:41:18.164Z,101240.56
2023-05-10T12:43:46.359Z,101248.31
2023-05-10T12:46:15.413Z,101242.03
2023-05-10T12:48:43.924Z,101244.47
2023-05-10T12:51:12.725Z,101240.06
2023-05-10T12:53:42.751Z,101235.59
2023-05-10T12:56:10.934Z,101240.63
2023-05-10T12:58:37.557Z,101243.94
2023-05-10T13:01:05.223Z,101243.03
2023-05-10T13:03:31.806Z,101239.50
2023-05-10T13:05:58.510Z,101251.63
2023-05-10T13:08:25.229Z,101240.50
2023-05-10T13:10:51.811Z,101238.56
2023-05-10T13:13:19.264Z,101244.56
2023-05-10T13:15:45.970Z,101250.59
2023-05-10T13:18:12.642Z,101246.28
2023-05-10T13:20:39.436Z,101256.00
2023-05-10T13:23:06.070Z,101254.53
2023-05-10T13:25:32.708Z,101258.28
2023-05-10T13:27:59.244Z,101261.75
2023-05-10T13:30:26.149Z,101261.75
2023-05-10T13:32:52.815Z,101269.47
2023-05-10T13:35:19.474Z,101257.59
2023-05-10T13:37:46.059Z,101265.47
2023-05-10T13:40:12.897Z,101258.72
2023-05-10T13:42:39.524Z,101270.16
2023-05-10T13:45:06.875Z,101270.31
2023-05-10T13:47:33.465Z,101264.22
2023-05-10T13:50:00.053Z,101259.09
2023-05-10T13:52:27.386Z,101269.53
2023-05-10T13:54:55.960Z,101271.25
2023-05-10T13:57:23.102Z,101277.34
2023-05-10T13:59:49.976Z,101277.38
2023-05-10T14:02:16.661Z,101269.56
2023-05-10T14:04:46.533Z,101271.34
2023-05-10T14:07:13.064Z,101271.25
2023-05-10T14:09:39.577Z,101278.16
2023-05-10T14:12:06.159Z,101272.91
2023-05-10T14:14:32.756Z,101265.97
2023-05-10T14:17:00.319Z,101265.94
2023-05-10T14:19:28.136Z,101271.97
2023-05-10T14:21:54.728Z,101271.06
2023-05-10T14:24:21.303Z,101258.84
2023-05-10T14:26:47.880Z,101273.63
2023-05-10T14:29:14.380Z,101261.56
2023-05-10T14:31:41.561Z,101269.25
2023-05-10T14:34:08.158Z,101270.06
2023-05-10T14:36:34.716Z,101273.44
2023-05-10T14:39:01.302Z,101279.44
2023-05-10T14:41:27.984Z,101276.75
2023-05-10T14:43:54.524Z,101270.91
2023-05-10T14:46:21.179Z,101272.78
2023-05-10T14:48:47.772Z,101277.81
2023-05-10T14:51:14.532Z,101280.47
2023-05-10T14:53:41.175Z,101281.38
2023-05-10T14:56:08.142Z,101270.06
2023-05-10T14:58:34.794Z,101282.94
2023-05-10T15:01:01.961Z,101280.25
2023-05-10T15:03:29.266Z,101287.31
2023-05-10T15:05:58.596Z,101288.28
2023-05-10T15:08:28.842Z,101288.22
2023-05-10T15:10:56.891Z,101294.34
2023-05-10T15:13:23.530Z,101295.22
2023-05-10T15:15:50.193Z,101294.47
2023-05-10T15:18:16.832Z,101290.16
2023-05-10T15:20:43.364Z,101291.88
2023-05-10T15:23:10.035Z,101302.16
2023-05-10T15:25:38.219Z,101302.91
2023-05-10T15:28:05.533Z,101306.41
2023-05-10T15:30:32.197Z,101304.50
2023-05-10T15:32:59.017Z,101309.78
2023-05-10T15:35:26.961Z,101308.78
2023-05-10T15:37:53.528Z,101299.03
2023-05-10T15:40:20.450Z,101315.19
2023-05-10T15:42:46.995Z,101315.19
2023-05-10T15:45:14.119Z,101319.44
2023-05-10T15:47:40.948Z,101319.25
2023-05-10T15:50:08.459Z,101301.19
2023-05-10T15:52:35.258Z,101330.69
2023-05-10T15:55:01.927Z,101323.81
2023-05-10T15:57:28.569Z,101312.50
2023-05-10T15:59:56.352Z,101307.50
2023-05-10T16:02:23.547Z,101320.59
2023-05-10T16:04:50.372Z,101322.47
2023-05-10T16:07:16.924Z,101321.59
2023-05-10T16:09:44.050Z,101321.72
2023-05-10T16:12:10.901Z,101317.41
2023-05-10T16:14:37.670Z,101314.97
2023-05-10T16:17:04.762Z,101308.84
2023-05-10T16:19:32.087Z,101322.59
2023-05-10T16:21:58.869Z,101313.00
2023-05-10T16:24:26.523Z,101326.72
2023-05-10T16:26:53.157Z,101325.81
2023-05-10T16:29:27.005Z,101320.66
2023-05-10T16:31:53.954Z,101324.91
2023-05-10T16:34:24.197Z,101300.81
2023-05-10T16:36:51.608Z,101322.50
2023-05-10T16:39:18.189Z,101333.03
2023-05-10T16:41:45.169Z,101340.88
2023-05-10T16:44:11.705Z,101333.97
2023-05-10T16:46:38.336Z,101329.66
2023-05-10T16:49:04.924Z,101324.53
2023-05-10T16:51:31.526Z,101337.53
2023-05-10T16:53:58.305Z,101318.47
2023-05-10T16:56:24.908Z,101336.69
2023-05-10T16:58:51.659Z,101334.22
2023-05-10T17:01:18.863Z,101328.13
2023-05-10T17:03:45.635Z,101339.38
2023-05-10T17:06:12.253Z,101332.53
2023-05-10T17:08:38.789Z,101334.25
2023-05-10T17:11:05.476Z,101344.66
2023-05-10T17:13:32.187Z,101329.94
2023-05-10T17:15:58.890Z,101351.53
2023-05-10T17:18:26.763Z,101342.97
2023-05-10T17:20:53.457Z,101348.13
2023-05-10T17:23:20.087Z,101343.06
2023-05-10T17:25:46.656Z,101342.16
2023-05-10T17:28:13.252Z,101362.97
2023-05-10T17:30:39.864Z,101359.56
2023-05-10T17:33:06.412Z,101330.22
2023-05-10T17:35:32.916Z,101347.53
2023-05-10T17:37:59.435Z,101364.91
2023-05-10T17:40:26.036Z,101364.06
2023-05-10T17:42:52.669Z,101371.81
2023-05-10T17:45:20.053Z,101368.41
2023-05-10T17:47:46.790Z,101377.91
2023-05-10T17:50:13.408Z,101379.69
2023-05-10T17:52:40.019Z,101364.13
2023-05-10T17:55:07.151Z,101362.41
2023-05-10T17:57:33.889Z,101371.91
2023-05-10T18:00:02.280Z,101391.81
2023-05-10T18:02:28.972Z,101354.63
2023-05-10T18:04:57.560Z,101388.34
2023-05-10T18:07:27.104Z,101390.06
2023-05-10T18:09:53.677Z,101394.41
2023-05-10T18:12:20.225Z,101395.28
2023-05-10T18:14:46.817Z,101395.31
2023-05-10T18:17:13.379Z,101381.47
2023-05-10T18:19:40.225Z,101399.63
2023-05-10T18:22:09.699Z,101379.75
2023-05-10T18:24:38.890Z,101395.34
2023-05-10T18:27:08.753Z,101401.38
2023-05-10T18:29:36.259Z,101400.53
2023-05-10T18:32:05.725Z,101385.81
2023-05-10T18:34:32.303Z,101397.94
2023-05-10T18:36:59.487Z,101390.16
2023-05-10T18:39:26.017Z,101402.25
2023-05-10T18:41:52.640Z,101407.44
2023-05-10T18:44:19.296Z,101400.50
2023-05-10T18:46:46.469Z,101410.88
2023-05-10T18:49:13.188Z,101403.97
2023-05-10T18:51:39.734Z,101397.06
2023-05-10T18:54:06.408Z,101397.94
2023-05-10T18:56:33.635Z,101412.63
2023-05-10T18:59:00.409Z,101387.53
2023-05-10T19:01:26.967Z,101410.00
2023-05-10T19:03:53.516Z,101416.94
2023-05-10T19:06:20.153Z,101413.47
2023-05-10T19:08:46.713Z,101421.25
2023-05-10T19:11:13.262Z,101421.25
2023-05-10T19:13:39.846Z,101432.50
2023-05-10T19:16:14.098Z,101433.34
2023-05-10T19:18:41.084Z,101421.22
2023-05-10T19:21:08.950Z,101440.25
2023-05-10T19:23:35.537Z,101418.63
2023-05-10T19:26:02.188Z,101428.94
2023-05-10T19:28:28.768Z,101443.63
2023-05-10T19:30:55.339Z,101453.13
2023-05-10T19:33:22.008Z,101447.91
2023-05-10T19:35:52.188Z,101447.88
2023-05-10T19:38:23.047Z,101467.75
2023-05-10T19:40:58.097Z,101453.00
2023-05-10T19:43:31.239Z,101467.72
2023-05-10T19:46:00.631Z,101467.75
2023-05-10T19:48:27.543Z,101468.59
2023-05-10T19:50:59.208Z,101461.66
2023-05-10T19:53:25.767Z,101451.22
2023-05-10T19:55:52.306Z,101476.31
2023-05-10T19:58:18.775Z,101476.31
2023-05-10T20:00:45.550Z,101482.34
2023-05-10T20:03:12.175Z,101475.38
2023-05-10T20:05:38.765Z,101479.72
2023-05-10T20:08:05.314Z,101467.59
2023-05-10T20:10:31.837Z,101476.19
2023-05-10T20:12:59.133Z,101476.19
2023-05-10T20:15:25.700Z,101484.81
2023-05-10T20:17:53.292Z,101491.69
2023-05-10T20:20:20.620Z,101483.06
2023-05-10T20:22:48.573Z,101470.06
2023-05-10T20:25:16.222Z,101482.19
2023-05-10T20:27:43.264Z,101488.25
2023-05-10T20:30:10.495Z,101496.03
2023-05-10T20:32:37.887Z,101491.69
2023-05-10T20:35:05.414Z,101496.03
2023-05-10T20:37:32.076Z,101499.47
2023-05-10T20:39:58.763Z,101489.94
2023-05-10T20:42:25.410Z,101482.16
2023-05-10T20:44:52.030Z,101489.94
2023-05-10T20:47:18.708Z,101497.75
2023-05-10T20:49:45.525Z,101486.50
2023-05-10T20:52:12.196Z,101499.53
2023-05-10T20:54:38.759Z,101504.69
2023-05-10T20:57:05.546Z,101482.16
2023-05-10T20:59:32.106Z,101499.47
2023-05-10T21:01:58.770Z,101502.06
2023-05-10T21:04:25.893Z,101505.53
2023-05-10T21:06:53.085Z,101502.88
2023-05-10T21:09:19.844Z,101493.41
2023-05-10T21:11:46.646Z,101509.84
2023-05-10T21:14:13.221Z,101506.41
2023-05-10T21:16:39.986Z,101504.66
2023-05-10T21:19:07.499Z,101491.63
2023-05-10T21:21:34.565Z,101499.44
2023-05-10T21:24:01.354Z,101498.50
2023-05-10T21:26:28.708Z,101494.16
2023-05-10T21:28:59.542Z,101512.31
2023-05-10T21:34:14.187Z,101459.47
2023-05-10T21:36:41.015Z,101477.63
2023-05-10T21:40:00.027Z,101468.09
2023-05-10T21:45:39.126Z,101484.50
2023-05-10T21:52:17.645Z,101468.03
2023-05-10T21:54:51.639Z,101507.91
2023-05-10T21:57:29.144Z,101495.72
2023-05-10T21:59:55.968Z,101470.59
2023-05-10T22:02:29.565Z,101496.53
2023-05-10T22:05:59.058Z,101468.84
2023-05-10T22:12:13.072Z,101467.09
2023-05-10T22:14:39.714Z,101487.91
2023-05-10T22:17:09.208Z,101503.50
2023-05-10T22:19:40.108Z,101515.63
2023-05-10T22:22:08.760Z,101480.91
2023-05-10T22:24:35.454Z,101498.25
2023-05-10T22:27:08.143Z,101497.38
2023-05-10T22:29:48.057Z,101479.16
2023-05-10T22:32:14.692Z,101502.56
2023-05-10T22:34:43.258Z,101488.69
2023-05-10T22:37:09.946Z,101509.50
2023-05-10T22:39:36.600Z,101498.22
2023-05-10T22:42:03.374Z,101499.09
2023-05-10T22:44:30.055Z,101510.34
2023-05-10T22:46:59.845Z,101508.63
2023-05-10T22:49:26.453Z,101504.31
2023-05-10T22:51:53.054Z,101489.59
2023-05-10T22:54:22.743Z,101505.22
2023-05-10T22:56:52.296Z,101512.13
2023-05-10T22:59:19.526Z,101499.97
2023-05-10T23:01:48.235Z,101496.47
2023-05-10T23:04:15.822Z,101508.56
2023-05-10T23:06:42.391Z,101534.56
2023-05-10T23:09:09.858Z,101536.31
2023-05-10T23:11:36.561Z,101518.97
2023-05-10T23:14:03.423Z,101536.25
2023-05-10T23:16:33.071Z,101539.72
2023-05-10T23:18:59.889Z,101515.41
2023-05-10T23:21:26.662Z,101493.78
2023-05-10T23:23:55.892Z,101525.88
2023-05-10T23:26:22.657Z,101536.28
2023-05-10T23:28:49.353Z,101504.19
2023-05-10T23:31:16.570Z,101534.47
2023-05-10T23:33:49.044Z,101540.59
2023-05-10T23:36:15.653Z,101546.63
2023-05-10T23:38:42.260Z,101538.88
2023-05-10T23:41:08.782Z,101543.19
2023-05-10T23:43:35.379Z,101545.78
2023-05-10T23:46:02.161Z,101536.22
2023-05-10T23:48:28.796Z,101539.69
2023-05-10T23:50:55.580Z,101523.22
2023-05-10T23:53:22.344Z,101529.22
2023-05-10T23:55:49.073Z,101519.66
2023-05-10T23:58:15.777Z,101503.16
